Time;durP1;ratioP1;P1;durP2;ratioP2;P2;SDS_P1;SDS_P2;PMS_P1;PMS_P2;Temp;Humidity;BMP_temperature;BMP_pressure;BME280_temperature;BME280_humidity;BME280_pressure;Samples;Min_cycle;Max_cycle;Signal;HPM_P1;HPM_P2
2021/12/03 00:00:09;;;;;;;1.60;1.17;;;14.40;62.50;;;;;;5038261;28;20401;-74
2021/12/03 00:02:36;;;;;;;1.40;1.00;;;14.50;62.40;;;;;;5071860;28;20127;-74
2021/12/03 00:05:04;;;;;;;1.95;1.10;;;;;;;;;;5053704;28;20139;-74
2021/12/03 00:07:33;;;;;;;1.10;0.90;;;14.40;62.60;;;;;;5053426;28;20052;-74
2021/12/03 00:10:01;;;;;;;1.00;0.90;;;14.30;62.40;;;;;;5053648;28;20052;-74
2021/12/03 00:12:27;;;;;;;1.55;0.90;;;14.60;59.60;;;;;;5053691;28;20110;-74
2021/12/03 00:14:54;;;;;;;1.75;1.00;;;;;;;;;;5053690;28;20063;-74
2021/12/03 00:17:21;;;;;;;1.85;1.00;;;;;;;;;;5053962;28;20545;-74
2021/12/03 00:19:48;;;;;;;1.10;0.90;;;14.30;62.50;;;;;;5053631;28;20059;-74
2021/12/03 00:22:15;;;;;;;2.35;1.20;;;14.30;58.00;;;;;;5053854;28;20055;-74
2021/12/03 00:24:42;;;;;;;1.88;1.15;;;14.50;62.80;;;;;;5053395;28;20131;-74
2021/12/03 00:27:10;;;;;;;1.45;1.10;;;14.20;62.80;;;;;;5053480;28;20040;-74
2021/12/03 00:29:36;;;;;;;1.23;1.00;;;14.10;61.60;;;;;;5053691;28;20140;-74
2021/12/03 00:32:04;;;;;;;0.82;0.75;;;14.20;62.80;;;;;;5053545;28;20169;-75
2021/12/03 00:34:31;;;;;;;2.00;0.80;;;;;;;;;;5053336;28;20163;-74
2021/12/03 00:36:58;;;;;;;1.38;1.00;;;;;;;;;;5053796;28;20131;-74
2021/12/03 00:39:26;;;;;;;1.40;1.00;;;14.00;62.50;;;;;;5053553;28;20080;-74
2021/12/03 00:41:57;;;;;;;1.30;1.10;;;14.00;62.60;;;;;;5053464;28;20057;-74
2021/12/03 00:47:01;;;;;;;2.25;1.00;;;13.90;62.60;;;;;;5655814;22;20126;-74
2021/12/03 00:49:28;;;;;;;1.63;1.10;;;14.00;62.70;;;;;;5062162;28;20156;-74
2021/12/03 00:51:55;;;;;;;1.67;1.00;;;13.80;62.80;;;;;;5047732;28;20075;-75
2021/12/03 00:54:21;;;;;;;1.33;0.90;;;14.00;63.00;;;;;;5057498;28;20131;-74
2021/12/03 00:56:48;;;;;;;1.42;1.10;;;14.00;62.80;;;;;;5066227;28;20079;-74
2021/12/03 00:59:15;;;;;;;1.10;0.90;;;13.80;63.10;;;;;;5077271;28;20082;-74
2021/12/03 01:01:42;;;;;;;1.40;0.90;;;13.90;63.00;;;;;;5077152;28;20547;-74
2021/12/03 01:04:10;;;;;;;1.00;0.90;;;14.00;63.00;;;;;;5077102;28;20139;-74
2021/12/03 01:06:36;;;;;;;1.33;0.95;;;13.80;63.00;;;;;;5076934;28;20075;-74
2021/12/03 01:09:03;;;;;;;1.45;0.95;;;14.00;63.20;;;;;;5076919;28;20134;-74
2021/12/03 01:11:30;;;;;;;1.63;1.20;;;14.00;60.10;;;;;;5076594;28;20082;-74
2021/12/03 01:14:00;;;;;;;2.10;0.95;;;13.90;63.10;;;;;;5076952;28;20555;-75
2021/12/03 01:16:27;;;;;;;0.90;0.82;;;13.80;61.60;;;;;;5076628;28;20124;-74
2021/12/03 01:18:54;;;;;;;2.67;1.20;;;;;;;;;;5077002;28;20127;-74
2021/12/03 01:21:22;;;;;;;1.65;1.05;;;13.80;63.20;;;;;;5076704;28;20123;-74
2021/12/03 01:23:49;;;;;;;1.05;0.90;;;;;;;;;;5076585;28;20139;-74
2021/12/03 01:26:16;;;;;;;1.65;1.00;;;13.80;62.90;;;;;;5076271;28;20473;-74
2021/12/03 01:28:43;;;;;;;1.25;1.00;;;13.70;56.50;;;;;;5076895;28;20135;-74
2021/12/03 01:31:09;;;;;;;1.38;1.00;;;13.80;63.20;;;;;;5076434;28;20051;-74
2021/12/03 01:33:36;;;;;;;1.73;1.10;;;13.70;63.20;;;;;;5076307;28;20095;-75
2021/12/03 01:36:03;;;;;;;1.60;0.90;;;13.70;61.60;;;;;;5076358;28;20133;-74
2021/12/03 01:38:31;;;;;;;2.28;1.30;;;13.60;63.20;;;;;;5076701;28;20470;-74
2021/12/03 01:40:58;;;;;;;1.55;1.00;;;13.80;63.30;;;;;;5076389;28;20503;-75
2021/12/03 01:43:26;;;;;;;1.55;1.05;;;14.00;57.50;;;;;;5076563;28;20147;-74
2021/12/03 01:45:53;;;;;;;1.05;0.95;;;13.80;63.10;;;;;;5075900;28;20078;-74
2021/12/03 01:48:20;;;;;;;1.00;0.90;;;13.70;63.30;;;;;;5076114;28;20134;-75
2021/12/03 01:50:47;;;;;;;1.75;0.98;;;13.70;63.20;;;;;;5076221;28;20127;-74
2021/12/03 01:53:15;;;;;;;2.50;1.00;;;13.70;63.00;;;;;;5075903;28;20084;-74
2021/12/03 01:55:43;;;;;;;2.17;1.20;;;13.60;58.10;;;;;;5076081;28;20135;-74
2021/12/03 01:58:10;;;;;;;1.70;1.13;;;13.70;58.90;;;;;;5074925;28;20052;-74
2021/12/03 02:00:38;;;;;;;2.92;1.00;;;13.60;63.10;;;;;;5076271;28;20500;-74
2021/12/03 02:03:06;;;;;;;1.92;1.17;;;13.50;63.30;;;;;;5075466;28;20143;-74
2021/12/03 02:05:33;;;;;;;1.25;0.98;;;13.60;63.20;;;;;;5075779;28;20044;-74
2021/12/03 02:07:59;;;;;;;2.15;1.08;;;13.50;63.10;;;;;;5075840;28;20088;-74
2021/12/03 02:10:26;;;;;;;1.25;1.10;;;13.60;63.10;;;;;;5075551;28;20135;-74
2021/12/03 02:12:55;;;;;;;1.83;1.00;;;13.70;63.00;;;;;;5075979;28;20131;-74
2021/12/03 02:15:22;;;;;;;1.48;1.13;;;13.60;63.30;;;;;;5075928;28;20056;-74
2021/12/03 02:17:48;;;;;;;1.10;1.00;;;13.70;63.20;;;;;;5075855;28;20528;-74
2021/12/03 02:20:15;;;;;;;1.60;1.20;;;13.70;63.40;;;;;;5075226;28;20083;-74
2021/12/03 02:22:43;;;;;;;1.83;1.20;;;13.80;56.70;;;;;;5075627;28;20134;-75
2021/12/03 02:25:13;;;;;;;1.38;1.00;;;13.70;56.80;;;;;;5075530;28;20132;-74
2021/12/03 02:27:40;;;;;;;2.38;1.10;;;13.60;63.10;;;;;;5075401;28;20527;-74
2021/12/03 02:30:07;;;;;;;1.35;1.10;;;13.10;62.80;;;;;;5075386;28;20087;-74
2021/12/03 02:32:34;;;;;;;1.95;1.20;;;14.40;57.00;;;;;;5075735;28;20155;-74
2021/12/03 02:35:01;;;;;;;2.42;1.20;;;13.80;63.40;;;;;;5075329;28;20134;-74
2021/12/03 02:37:28;;;;;;;2.25;1.20;;;13.90;63.50;;;;;;5075268;28;20436;-74
2021/12/03 02:39:56;;;;;;;1.98;1.40;;;13.60;56.40;;;;;;5075044;28;20130;-74
2021/12/03 02:42:22;;;;;;;3.08;1.10;;;13.50;57.20;;;;;;5075446;28;20080;-74
2021/12/03 02:44:49;;;;;;;2.97;1.23;;;13.60;59.00;;;;;;5075145;28;20583;-74
2021/12/03 02:47:16;;;;;;;1.40;1.15;;;;;;;;;;5074841;28;20066;-75
2021/12/03 02:49:43;;;;;;;2.13;1.30;;;13.60;63.40;;;;;;5075045;28;20131;-74
2021/12/03 02:52:10;;;;;;;1.67;1.30;;;13.50;63.30;;;;;;5075223;28;20140;-75
2021/12/03 02:54:37;;;;;;;1.77;1.20;;;;;;;;;;5074990;28;20134;-74
2021/12/03 02:57:06;;;;;;;1.75;1.25;;;13.30;63.00;;;;;;5074906;28;20083;-75
2021/12/03 02:59:33;;;;;;;2.10;1.20;;;;;;;;;;5074632;28;20429;-74
2021/12/03 03:02:00;;;;;;;2.22;1.40;;;13.90;63.60;;;;;;5092907;28;20097;-74
2021/12/03 03:04:27;;;;;;;1.70;1.15;;;13.60;57.70;;;;;;5074848;28;20126;-75
2021/12/03 03:06:54;;;;;;;2.80;1.40;;;13.50;63.10;;;;;;5074686;28;20143;-74
2021/12/03 03:09:20;;;;;;;1.70;1.23;;;13.60;63.10;;;;;;5074431;28;20087;-74
2021/12/03 03:11:47;;;;;;;1.73;1.17;;;13.60;57.90;;;;;;5074639;28;20462;-74
2021/12/03 03:14:15;;;;;;;2.13;1.27;;;13.50;63.20;;;;;;5074718;28;20131;-75
2021/12/03 03:16:42;;;;;;;2.25;1.30;;;13.70;63.20;;;;;;5074329;28;20135;-74
2021/12/03 03:19:10;;;;;;;2.85;1.58;;;13.70;63.00;;;;;;5074092;28;20127;-74
2021/12/03 03:21:37;;;;;;;1.83;1.30;;;;;;;;;;5074597;28;20878;-74
2021/12/03 03:24:07;;;;;;;2.13;1.40;;;13.80;63.20;;;;;;5074491;28;20135;-74
2021/12/03 03:26:34;;;;;;;2.15;1.35;;;;;;;;;;5074070;28;20388;-74
2021/12/03 03:29:00;;;;;;;2.40;1.50;;;13.80;63.00;;;;;;5074215;28;20131;-75
2021/12/03 03:31:28;;;;;;;1.95;1.58;;;13.70;62.90;;;;;;5074565;28;20495;-74
2021/12/03 03:33:55;;;;;;;1.70;1.30;;;13.70;56.90;;;;;;5074436;28;20135;-74
2021/12/03 03:36:22;;;;;;;2.58;1.40;;;13.90;58.70;;;;;;5073884;28;20134;-74
2021/12/03 03:38:49;;;;;;;1.85;1.35;;;;;;;;;;5074238;28;20074;-74
2021/12/03 03:41:16;;;;;;;2.83;1.40;;;;;;;;;;5074345;28;20552;-74
2021/12/03 03:43:43;;;;;;;2.15;1.30;;;13.50;62.60;;;;;;5074426;28;20253;-74
2021/12/03 03:46:09;;;;;;;2.15;1.40;;;13.40;62.50;;;;;;5073796;28;20082;-74
2021/12/03 03:48:38;;;;;;;2.15;1.50;;;13.60;57.30;;;;;;5073672;28;20131;-74
2021/12/03 03:51:04;;;;;;;2.15;1.38;;;13.80;59.60;;;;;;5074056;28;20083;-75
2021/12/03 03:53:31;;;;;;;1.70;1.35;;;;;;;;;;5073462;28;20107;-74
2021/12/03 03:55:58;;;;;;;1.50;1.30;;;;;;;;;;5070264;28;20079;-74
2021/12/03 03:58:25;;;;;;;1.73;1.40;;;13.90;62.80;;;;;;5073806;28;20138;-75
2021/12/03 04:00:52;;;;;;;1.98;1.40;;;14.10;62.70;;;;;;5073918;28;20693;-74
2021/12/03 04:03:18;;;;;;;3.33;1.50;;;14.00;62.60;;;;;;5074016;28;20131;-75
2021/12/03 04:05:47;;;;;;;2.50;1.33;;;14.10;62.80;;;;;;5073955;28;20131;-74
2021/12/03 04:08:14;;;;;;;1.80;1.40;;;;;;;;;;5091730;28;20515;-74
2021/12/03 04:10:40;;;;;;;1.98;1.35;;;14.00;62.60;;;;;;5074005;28;20151;-74
2021/12/03 04:13:07;;;;;;;2.03;1.35;;;14.00;62.00;;;;;;5073812;28;20126;-75
2021/12/03 04:15:34;;;;;;;1.85;1.25;;;14.10;62.40;;;;;;5073649;28;20136;-75
2021/12/03 04:18:01;;;;;;;2.65;1.40;;;;;;;;;;5073798;28;20560;-75
2021/12/03 04:20:27;;;;;;;2.17;1.30;;;13.90;62.50;;;;;;5072716;28;20140;-75
2021/12/03 04:22:56;;;;;;;2.10;1.45;;;13.70;62.20;;;;;;5074034;28;20543;-75
2021/12/03 04:25:23;;;;;;;2.38;1.52;;;14.10;62.50;;;;;;5077905;28;20078;-74
2021/12/03 04:27:49;;;;;;;2.58;1.50;;;14.40;60.50;;;;;;5075733;28;20134;-73
2021/12/03 04:30:18;;;;;;;2.30;1.55;;;14.20;62.70;;;;;;5077759;28;20509;-74
2021/12/03 04:32:44;;;;;;;2.15;1.52;;;13.60;62.30;;;;;;5077693;28;20054;-74
2021/12/03 04:35:11;;;;;;;1.80;1.40;;;;;;;;;;5077443;28;20047;-73
2021/12/03 04:37:38;;;;;;;1.90;1.40;;;14.20;62.30;;;;;;5077433;28;20493;-74
2021/12/03 04:40:11;;;;;;;2.10;1.63;;;14.10;62.10;;;;;;5077782;28;20050;-74
2021/12/03 04:42:38;;;;;;;2.35;1.70;;;14.20;59.70;;;;;;5095382;28;20127;-74
2021/12/03 04:45:05;;;;;;;1.73;1.23;;;14.20;62.30;;;;;;5095400;28;20123;-73
2021/12/03 04:47:32;;;;;;;2.22;1.33;;;;;;;;;;5076931;28;20467;-74
2021/12/03 04:49:59;;;;;;;1.80;1.40;;;14.30;62.20;;;;;;5077365;28;20128;-74
2021/12/03 04:52:26;;;;;;;2.33;1.40;;;14.40;62.20;;;;;;5095437;28;20048;-74
2021/12/03 04:54:52;;;;;;;1.83;1.48;;;14.20;62.10;;;;;;5077463;28;20052;-74
2021/12/03 04:57:20;;;;;;;2.03;1.50;;;14.30;62.20;;;;;;5076763;28;20131;-74
2021/12/03 04:59:47;;;;;;;2.15;1.35;;;14.40;62.10;;;;;;5071506;28;20135;-74
2021/12/03 05:02:14;;;;;;;2.13;1.40;;;;;;;;;;5077274;28;20060;-72
2021/12/03 05:04:41;;;;;;;3.20;1.42;;;14.20;62.00;;;;;;5077351;28;20055;-74
2021/12/03 05:07:27;;;;;;;2.20;1.60;;;14.40;62.20;;;;;;5069557;28;20045;-74
2021/12/03 05:09:54;;;;;;;2.95;1.50;;;14.10;61.80;;;;;;5061721;28;20052;-74
2021/12/03 05:12:22;;;;;;;1.60;1.30;;;14.30;62.00;;;;;;5064078;28;20576;-74
2021/12/03 05:14:49;;;;;;;2.38;1.20;;;14.30;62.10;;;;;;5066347;28;20128;-74
2021/12/03 05:17:15;;;;;;;1.77;1.38;;;14.20;61.80;;;;;;5062054;28;20124;-74
2021/12/03 05:19:42;;;;;;;2.20;1.30;;;;;;;;;;5065632;28;20051;-73
2021/12/03 05:22:09;;;;;;;1.83;1.40;;;14.20;61.90;;;;;;5079322;28;20548;-74
2021/12/03 05:24:36;;;;;;;2.15;1.45;;;14.40;62.10;;;;;;5070351;28;20135;-74
2021/12/03 05:27:03;;;;;;;1.67;1.20;;;14.40;62.00;;;;;;5075544;28;20054;-74
2021/12/03 05:29:31;;;;;;;1.40;1.20;;;14.80;61.90;;;;;;5076554;28;20135;-74
2021/12/03 05:31:58;;;;;;;1.25;1.00;;;14.40;61.70;;;;;;5076940;28;20151;-72
2021/12/03 05:34:24;;;;;;;1.67;1.10;;;14.30;61.90;;;;;;5094683;28;20075;-72
2021/12/03 05:36:51;;;;;;;3.03;1.30;;;14.40;61.70;;;;;;5094198;28;20060;-72
2021/12/03 05:39:18;;;;;;;1.40;1.10;;;14.50;61.90;;;;;;5094544;28;20123;-72
2021/12/03 05:41:45;;;;;;;1.77;1.30;;;14.40;61.90;;;;;;5076363;28;20465;-72
2021/12/03 05:44:13;;;;;;;2.20;1.38;;;14.40;61.60;;;;;;5094552;28;20131;-72
2021/12/03 05:46:41;;;;;;;1.77;1.30;;;14.50;61.70;;;;;;5076114;28;20052;-72
2021/12/03 05:49:08;;;;;;;1.73;1.30;;;;;;;;;;5076137;28;20146;-72
2021/12/03 05:51:35;;;;;;;2.20;1.20;;;13.90;61.30;;;;;;5076297;28;20140;-72
2021/12/03 05:54:02;;;;;;;1.88;1.30;;;14.50;60.40;;;;;;5076163;28;20135;-72
2021/12/03 05:56:28;;;;;;;2.00;1.25;;;14.60;61.60;;;;;;5076035;28;20528;-72
2021/12/03 05:58:55;;;;;;;1.63;1.20;;;14.40;61.60;;;;;;5075536;28;20131;-72
2021/12/03 06:01:22;;;;;;;2.30;1.38;;;;;;;;;;5076304;28;20060;-72
2021/12/03 06:03:50;;;;;;;2.10;1.23;;;14.40;61.40;;;;;;5094172;28;20126;-72
2021/12/03 06:06:17;;;;;;;1.83;1.40;;;;;;;;;;5075502;28;20128;-72
2021/12/03 06:08:44;;;;;;;2.75;1.42;;;14.60;61.70;;;;;;5075944;28;20131;-72
2021/12/03 06:11:11;;;;;;;2.92;1.40;;;14.40;61.40;;;;;;5075836;28;20084;-72
2021/12/03 06:13:39;;;;;;;2.05;1.20;;;14.40;61.50;;;;;;5076153;28;20527;-73
2021/12/03 06:16:07;;;;;;;2.05;1.20;;;14.50;61.30;;;;;;5093657;28;20059;-72
2021/12/03 06:18:34;;;;;;;2.42;1.30;;;;;;;;;;5075461;28;20079;-73
2021/12/03 06:21:03;;;;;;;1.52;1.20;;;14.50;61.60;;;;;;5075958;28;20131;-72
2021/12/03 06:23:29;;;;;;;1.48;1.20;;;14.50;61.40;;;;;;5093794;28;20131;-72
2021/12/03 06:25:57;;;;;;;1.98;1.27;;;;;;;;;;5075159;28;20055;-72
2021/12/03 06:28:24;;;;;;;1.50;1.10;;;;;;;;;;5093290;28;20048;-73
2021/12/03 06:30:52;;;;;;;1.52;1.20;;;;;;;;;;5075714;28;20532;-72
2021/12/03 06:33:20;;;;;;;2.22;1.40;;;;;;;;;;5075662;28;20134;-73
2021/12/03 06:35:46;;;;;;;2.35;1.30;;;14.60;61.30;;;;;;5093245;28;20044;-72
2021/12/03 06:38:15;;;;;;;1.60;1.20;;;14.50;61.50;;;;;;5093121;28;20131;-72
2021/12/03 06:40:41;;;;;;;1.73;1.27;;;14.40;61.40;;;;;;5073259;28;20139;-72
2021/12/03 06:43:08;;;;;;;1.65;1.20;;;14.80;61.40;;;;;;5055340;28;20142;-72
2021/12/03 06:45:35;;;;;;;1.77;1.23;;;14.60;57.60;;;;;;5054674;28;20135;-72
2021/12/03 06:48:02;;;;;;;2.20;1.30;;;14.20;61.10;;;;;;5067092;28;20054;-72
2021/12/03 06:50:30;;;;;;;1.73;1.27;;;;;;;;;;5075355;28;20058;-73
2021/12/03 06:53:00;;;;;;;1.38;1.05;;;14.30;60.20;;;;;;5074975;28;20880;-72
2021/12/03 06:55:28;;;;;;;1.40;1.20;;;14.50;61.20;;;;;;5093268;28;20044;-72
2021/12/03 06:57:55;;;;;;;3.42;1.15;;;14.60;61.20;;;;;;5074914;28;20113;-72
2021/12/03 07:00:23;;;;;;;2.03;1.30;;;14.50;57.30;;;;;;5075035;28;20139;-72
2021/12/03 07:02:49;;;;;;;2.50;1.50;;;14.60;60.20;;;;;;5075094;28;20060;-72
2021/12/03 07:05:16;;;;;;;2.08;1.20;;;14.60;61.30;;;;;;5092733;28;20076;-72
2021/12/03 07:07:45;;;;;;;1.35;1.25;;;;;;;;;;5074195;28;20123;-72
2021/12/03 07:10:12;;;;;;;1.65;1.20;;;14.60;61.10;;;;;;5093168;28;20048;-72
2021/12/03 07:12:40;;;;;;;1.48;1.10;;;14.50;61.20;;;;;;5074853;28;20072;-72
2021/12/03 07:15:07;;;;;;;1.63;1.20;;;14.90;61.40;;;;;;5074602;28;20056;-72
2021/12/03 07:17:34;;;;;;;1.48;1.15;;;14.50;59.30;;;;;;5092023;28;20464;-72
2021/12/03 07:20:00;;;;;;;1.70;1.13;;;14.60;61.20;;;;;;5092728;28;20113;-72
2021/12/03 07:22:27;;;;;;;1.52;1.10;;;14.70;61.10;;;;;;5074610;28;20131;-72
2021/12/03 07:24:54;;;;;;;1.98;1.25;;;14.60;61.10;;;;;;5074705;28;20062;-72
2021/12/03 07:27:21;;;;;;;1.90;1.30;;;14.70;61.00;;;;;;5073808;28;20539;-72
2021/12/03 07:29:49;;;;;;;1.20;1.10;;;14.60;54.60;;;;;;5074628;28;20139;-72
2021/12/03 07:32:16;;;;;;;2.50;1.40;;;;;;;;;;5092305;28;20080;-72
2021/12/03 07:34:43;;;;;;;1.55;1.15;;;14.70;61.10;;;;;;5092370;28;20079;-72
2021/12/03 07:37:10;;;;;;;1.88;1.23;;;;;;;;;;5091859;28;20457;-73
2021/12/03 07:39:37;;;;;;;2.08;1.40;;;14.30;60.80;;;;;;5074195;28;20155;-72
2021/12/03 07:42:04;;;;;;;2.38;1.23;;;14.60;61.20;;;;;;5074034;28;20136;-72
2021/12/03 07:44:31;;;;;;;1.60;1.30;;;14.70;61.00;;;;;;5092447;28;20127;-72
2021/12/03 07:46:59;;;;;;;2.08;1.38;;;14.60;60.90;;;;;;5073500;28;20131;-72
2021/12/03 07:49:26;;;;;;;1.33;1.20;;;14.10;60.70;;;;;;5073787;28;20143;-72
2021/12/03 07:51:54;;;;;;;1.85;1.23;;;;;;;;;;5092162;28;20462;-75
2021/12/03 07:54:21;;;;;;;1.77;1.10;;;;;;;;;;5073923;28;20063;-74
2021/12/03 07:56:48;;;;;;;2.22;1.50;;;14.70;61.00;;;;;;5090731;28;20563;-74
2021/12/03 07:59:14;;;;;;;1.35;1.25;;;14.70;61.20;;;;;;5092089;28;20127;-73
2021/12/03 08:01:41;;;;;;;1.77;1.27;;;14.40;60.70;;;;;;5073980;28;20075;-74
2021/12/03 08:04:10;;;;;;;1.85;1.20;;;14.80;61.00;;;;;;5074131;28;20126;-75
2021/12/03 08:06:39;;;;;;;1.95;1.33;;;;;;;;;;5073407;28;20052;-73
2021/12/03 08:09:06;;;;;;;1.75;1.13;;;14.20;60.70;;;;;;5073803;28;20087;-75
2021/12/03 08:11:33;;;;;;;1.75;1.30;;;;;;;;;;5073722;28;20143;-73
2021/12/03 08:14:00;;;;;;;1.77;1.35;;;14.70;61.20;;;;;;5073849;28;20230;-75
2021/12/03 08:16:26;;;;;;;2.15;1.30;;;14.50;60.80;;;;;;5073763;28;20472;-75
2021/12/03 08:18:53;;;;;;;1.90;1.15;;;14.40;55.20;;;;;;5073645;28;20135;-73
2021/12/03 08:21:21;;;;;;;1.65;1.20;;;14.70;61.10;;;;;;5073732;28;20127;-75
2021/12/03 08:23:49;;;;;;;1.83;1.20;;;14.70;61.10;;;;;;5073942;28;20553;-74
2021/12/03 08:26:15;;;;;;;1.80;1.30;;;14.30;60.90;;;;;;5073256;28;20051;-74
2021/12/03 08:28:42;;;;;;;1.80;1.30;;;14.70;61.10;;;;;;5073765;28;20079;-73
2021/12/03 08:31:11;;;;;;;2.13;1.55;;;14.70;60.80;;;;;;5073853;28;20142;-76
2021/12/03 08:33:38;;;;;;;2.83;1.90;;;15.30;61.30;;;;;;5073789;28;20432;-76
2021/12/03 08:36:05;;;;;;;2.70;1.73;;;14.60;61.00;;;;;;5073630;28;20131;-76
2021/12/03 08:38:33;;;;;;;2.47;1.50;;;14.70;54.60;;;;;;5073592;28;20139;-74
2021/12/03 08:41:00;;;;;;;2.22;1.50;;;14.40;55.50;;;;;;5073855;28;20128;-75
2021/12/03 08:43:26;;;;;;;2.50;1.60;;;14.60;61.10;;;;;;5073671;28;20054;-75
2021/12/03 08:45:54;;;;;;;2.72;1.50;;;14.70;61.60;;;;;;5073217;28;20083;-76
2021/12/03 08:48:22;;;;;;;1.45;1.30;;;14.10;61.00;;;;;;5069433;28;20045;-76
2021/12/03 08:50:52;;;;;;;2.20;1.33;;;15.10;61.70;;;;;;5070464;28;20169;-76
2021/12/03 08:56:04;;;;;;;2.53;1.60;;;15.30;61.90;;;;;;5038255;28;20048;-76
2021/12/03 08:58:30;;;;;;;2.42;1.63;;;14.00;61.00;;;;;;5073288;28;20079;-76
2021/12/03 09:00:57;;;;;;;2.25;1.40;;;14.70;61.50;;;;;;5073382;28;20472;-76
2021/12/03 09:03:25;;;;;;;2.78;1.40;;;14.50;61.50;;;;;;5073697;28;20163;-73
2021/12/03 09:05:52;;;;;;;2.83;1.73;;;14.70;61.60;;;;;;5073434;28;20515;-73
2021/12/03 09:08:19;;;;;;;3.53;1.60;;;14.60;61.30;;;;;;5075259;28;20127;-73
2021/12/03 09:10:46;;;;;;;3.25;1.50;;;14.50;61.40;;;;;;5077629;28;20547;-73
2021/12/03 09:13:14;;;;;;;2.00;1.40;;;14.60;54.90;;;;;;5095311;28;20090;-73
2021/12/03 09:15:44;;;;;;;2.38;1.77;;;14.50;61.50;;;;;;5094813;28;20087;-74
2021/12/03 09:18:27;;;;;;;3.47;2.05;;;14.50;61.40;;;;;;5076964;28;20051;-74
2021/12/03 09:20:58;;;;;;;3.95;1.70;;;14.60;61.60;;;;;;5076862;28;20496;-73
2021/12/03 09:23:35;;;;;;;1.73;1.40;;;14.60;61.50;;;;;;5077102;28;20058;-75
2021/12/03 09:26:10;;;;;;;3.08;1.83;;;14.70;61.50;;;;;;5094740;28;20071;-74
2021/12/03 09:28:38;;;;;;;2.20;1.50;;;14.00;61.00;;;;;;5076988;28;20048;-73
2021/12/03 09:31:05;;;;;;;1.95;1.52;;;;;;;;;;5076913;28;20056;-74
2021/12/03 09:33:34;;;;;;;2.63;1.77;;;14.70;61.40;;;;;;5094292;28;20101;-73
2021/12/03 09:36:03;;;;;;;2.58;1.60;;;14.30;55.20;;;;;;5089909;28;20036;-73
2021/12/03 09:38:32;;;;;;;3.33;1.95;;;14.50;61.10;;;;;;5076897;28;20401;-73
2021/12/03 09:41:05;;;;;;;3.30;1.88;;;14.60;54.90;;;;;;5076677;28;20492;-74
2021/12/03 09:43:33;;;;;;;2.80;1.70;;;14.70;61.40;;;;;;5076314;28;20047;-73
2021/12/03 09:46:06;;;;;;;3.75;1.83;;;15.30;55.20;;;;;;5076154;28;20556;-74
2021/12/03 09:48:43;;;;;;;3.13;1.90;;;14.00;61.00;;;;;;5075430;28;20040;-73
2021/12/03 09:51:10;;;;;;;3.47;2.08;;;14.70;61.20;;;;;;5076367;28;20048;-73
2021/12/03 09:54:06;;;;;;;3.42;1.80;;;14.60;61.30;;;;;;5076289;28;20173;-73
2021/12/03 09:56:33;;;;;;;3.95;2.10;;;14.60;61.50;;;;;;5075938;28;20059;-73
2021/12/03 10:02:04;;;;;;;3.55;2.00;;;14.60;61.70;;;;;;5109908;27;20400;-72
2021/12/03 10:04:48;;;;;;;4.13;1.90;;;14.60;61.70;;;;;;5108694;28;20047;-73
2021/12/03 10:12:59;;;;;;;2.83;2.03;;;;;;;;;;5071338;28;20044;-73
2021/12/03 10:15:28;;;;;;;3.30;2.33;;;14.70;61.90;;;;;;5071621;28;20056;-73
2021/12/03 10:18:06;;;;;;;3.90;2.15;;;14.60;61.60;;;;;;5086828;28;20458;-73
2021/12/03 10:20:38;;;;;;;3.78;2.30;;;14.80;61.50;;;;;;5080003;28;20408;-72
2021/12/03 10:23:59;;;;;;;2.65;2.03;;;14.60;56.30;;;;;;5077439;28;20555;-74
2021/12/03 10:40:37;;;;;;;4.25;2.85;;;14.70;61.80;;;;;;5073004;28;20056;-72
2021/12/03 10:43:15;;;;;;;8.23;3.33;;;14.70;61.40;;;;;;5081294;28;20051;-72
2021/12/03 10:45:54;;;;;;;4.95;2.97;;;14.70;61.70;;;;;;5079071;28;20048;-73
2021/12/03 10:48:34;;;;;;;5.53;3.13;;;14.70;59.10;;;;;;5076373;28;20052;-72
2021/12/03 10:51:24;;;;;;;6.57;3.33;;;14.70;61.40;;;;;;5078667;28;20044;-72
2021/12/03 10:53:57;;;;;;;8.73;3.33;;;14.70;61.40;;;;;;5070520;28;20052;-72
2021/12/03 10:56:45;;;;;;;5.97;3.28;;;15.50;61.90;;;;;;5088449;28;20048;-72
2021/12/03 11:08:04;;;;;;;4.93;3.10;;;14.80;54.50;;;;;;5062839;28;20067;-74
2021/12/03 11:36:12;;;;;;;6.15;3.25;;;14.90;61.30;;;;;;5092435;28;20139;-74
2021/12/03 11:39:06;;;;;;;;;;;14.90;55.10;;;;;;5056654;28;20048;-74
2021/12/03 13:20:33;;;;;;;4.90;1.92;;;14.90;62.00;;;;;;4991089;28;20054;-73
2021/12/03 14:10:42;;;;;;;3.55;1.50;;;14.80;62.50;;;;;;5034587;28;20528;-72
2021/12/03 14:41:39;;;;;;;2.65;1.40;;;14.50;62.30;;;;;;5053112;28;20508;-72
2021/12/03 14:44:15;;;;;;;4.07;1.85;;;14.10;62.30;;;;;;5051430;28;20049;-72
2021/12/03 14:50:19;;;;;;;3.85;1.50;;;14.40;62.60;;;;;;4975369;28;20050;-71
2021/12/03 14:55:37;;;;;;;4.45;1.58;;;14.40;62.80;;;;;;5038753;28;20494;-71
2021/12/03 14:58:07;;;;;;;3.65;1.67;;;;;;;;;;5039083;28;20076;-71
2021/12/03 15:00:46;;;;;;;3.05;1.70;;;14.30;60.10;;;;;;5040495;28;20056;-71
2021/12/03 15:03:41;;;;;;;2.90;1.55;;;14.20;62.70;;;;;;5041719;28;20041;-71
2021/12/03 15:06:17;;;;;;;2.67;1.50;;;14.40;62.90;;;;;;5040072;28;20049;-72
2021/12/03 15:08:50;;;;;;;2.30;1.42;;;13.70;62.30;;;;;;5039114;28;20057;-73
2021/12/03 15:22:49;;;;;;;3.95;1.85;;;14.40;62.90;;;;;;5031168;28;20045;-71
2021/12/03 15:25:27;;;;;;;3.97;1.63;;;14.30;62.80;;;;;;5050220;28;20478;-71
2021/12/03 15:28:15;;;;;;;2.25;1.50;;;14.30;62.80;;;;;;5051118;28;20053;-74
2021/12/03 15:30:53;;;;;;;6.57;1.73;;;14.40;62.80;;;;;;5050716;28;20061;-75
2021/12/03 15:33:26;;;;;;;5.03;1.60;;;14.50;62.90;;;;;;5065959;28;20386;-75
2021/12/03 15:35:56;;;;;;;3.05;1.67;;;14.50;62.70;;;;;;5048815;28;20409;-75
2021/12/03 15:38:36;;;;;;;3.53;1.60;;;;;;;;;;5043938;28;21459;-74
2021/12/03 15:55:09;;;;;;;2.88;1.50;;;13.90;62.40;;;;;;5049201;28;20040;-74
2021/12/03 16:08:40;;;;;;;4.97;1.60;;;15.30;62.90;;;;;;5050482;28;20048;-74
2021/12/03 16:11:17;;;;;;;4.03;1.60;;;;;;;;;;5050213;28;20063;-73
2021/12/03 16:13:52;;;;;;;1.83;1.30;;;14.60;62.70;;;;;;5049914;28;20049;-72
2021/12/03 16:19:17;;;;;;;2.95;1.58;;;14.40;62.70;;;;;;5043696;28;20064;-73
2021/12/03 16:21:54;;;;;;;2.65;1.70;;;14.60;62.50;;;;;;5044158;28;20059;-73
2021/12/03 16:43:56;;;;;;;5.23;1.60;;;14.60;63.10;;;;;;5009803;28;20053;-73
2021/12/03 16:46:35;;;;;;;4.22;1.50;;;15.00;61.10;;;;;;5041238;28;20549;-73
2021/12/03 16:51:54;;;;;;;2.60;1.20;;;14.60;62.70;;;;;;5036617;28;20050;-73
2021/12/03 16:54:26;;;;;;;2.35;1.50;;;14.60;62.30;;;;;;5055765;28;20057;-73
2021/12/03 16:56:54;;;;;;;1.83;1.40;;;15.30;62.70;;;;;;5041772;28;20440;-74
2021/12/03 16:59:22;;;;;;;1.73;1.20;;;;;;;;;;5050905;28;20424;-74
2021/12/03 17:01:55;;;;;;;2.30;1.30;;;14.70;62.50;;;;;;5053390;28;20539;-74
2021/12/03 17:13:01;;;;;;;1.65;1.20;;;14.70;62.50;;;;;;5048133;28;20379;-73
2021/12/03 17:18:54;;;;;;;2.08;1.30;;;14.80;62.50;;;;;;5033374;28;20048;-73
2021/12/03 17:29:56;;;;;;;3.15;1.23;;;14.70;62.30;;;;;;5001044;28;20057;-73
2021/12/03 17:46:45;;;;;;;1.95;1.15;;;14.30;62.00;;;;;;5053561;28;20051;-73
2021/12/03 17:49:22;;;;;;;1.27;1.00;;;14.80;62.70;;;;;;5052782;28;20053;-74
2021/12/03 17:51:57;;;;;;;1.60;1.20;;;14.80;62.60;;;;;;5053995;28;20048;-73
2021/12/03 17:54:35;;;;;;;;;;;14.70;56.60;;;;;;5057312;28;20409;-73
2021/12/03 17:57:14;;;;;;;1.88;1.20;;;14.80;62.90;;;;;;5055240;28;19964;-74
2021/12/03 17:59:43;;;;;;;4.32;1.20;;;14.90;62.50;;;;;;5052662;28;20049;-73
2021/12/03 18:02:19;;;;;;;1.52;1.10;;;14.50;62.50;;;;;;5052089;28;20080;-75
2021/12/03 18:05:01;;;;;;;2.38;1.00;;;14.70;62.70;;;;;;5052336;28;20127;-73
2021/12/03 18:07:45;;;;;;;4.63;1.38;;;14.80;62.80;;;;;;5053624;28;20052;-73
2021/12/03 18:13:22;;;;;;;2.45;1.13;;;14.70;62.60;;;;;;5052220;28;20081;-75
2021/12/03 18:43:38;;;;;;;1.63;1.20;;;;;;;;;;5062050;28;20060;-75
2021/12/03 18:46:35;;;;;;;1.85;1.30;;;14.40;63.10;;;;;;5063250;28;20080;-73
2021/12/03 18:49:23;;;;;;;1.20;1.05;;;14.40;62.40;;;;;;5063358;28;20484;-76
2021/12/03 18:52:00;;;;;;;1.70;1.20;;;;;;;;;;5059470;28;20110;-75
2021/12/03 18:57:15;;;;;;;1.73;1.10;;;14.40;63.00;;;;;;5050803;28;20045;-73
2021/12/03 18:59:52;;;;;;;1.98;1.23;;;14.00;61.20;;;;;;5054128;28;20050;-73
2021/12/03 19:02:21;;;;;;;2.55;1.10;;;14.60;62.90;;;;;;5065183;28;20057;-73
2021/12/03 19:04:52;;;;;;;1.70;1.30;;;14.40;63.00;;;;;;5051557;28;20091;-73
2021/12/03 19:07:21;;;;;;;1.50;1.10;;;14.40;61.50;;;;;;5064397;28;20048;-73
2021/12/03 19:09:51;;;;;;;1.30;1.15;;;14.30;62.90;;;;;;5052833;28;20060;-74
2021/12/03 19:12:23;;;;;;;1.92;1.40;;;14.00;62.70;;;;;;5066185;28;20048;-73
2021/12/03 19:14:53;;;;;;;1.10;1.00;;;;;;;;;;5059516;28;20056;-76
2021/12/03 19:17:22;;;;;;;1.58;1.10;;;14.40;63.00;;;;;;5050160;28;20053;-73
2021/12/03 19:19:50;;;;;;;1.77;1.20;;;14.50;63.10;;;;;;5062834;28;20102;-73
2021/12/03 19:22:17;;;;;;;1.20;1.10;;;;;;;;;;5062333;28;20053;-74
2021/12/03 19:24:44;;;;;;;1.60;1.13;;;15.10;63.10;;;;;;5056954;28;20120;-73
2021/12/03 19:27:11;;;;;;;1.45;1.15;;;14.50;63.10;;;;;;5046586;28;20131;-73